createdAt,value
2018-08-22T00:01:23.851Z,7.13
2018-08-22T00:03:52.995Z,8.30
2018-08-22T00:06:22.045Z,9.23
2018-08-22T00:08:51.167Z,8.33
2018-08-22T00:11:20.418Z,8.17
2018-08-22T00:13:49.472Z,7.53
2018-08-22T00:16:18.561Z,7.60
2018-08-22T00:18:47.615Z,8.30
2018-08-22T00:21:16.670Z,8.33
2018-08-22T00:23:45.735Z,8.17
2018-08-22T00:26:14.922Z,9.10
2018-08-22T00:28:44.038Z,8.70
2018-08-22T00:31:13.103Z,8.70
2018-08-22T00:33:42.216Z,7.97
2018-08-22T00:36:11.317Z,7.83
2018-08-22T00:38:40.367Z,8.70
2018-08-22T00:41:09.436Z,8.53
2018-08-22T00:43:38.592Z,8.80
2018-08-22T00:46:07.700Z,8.57
2018-08-22T00:48:36.778Z,8.30
2018-08-22T00:51:05.879Z,8.60
2018-08-22T00:53:35.010Z,8.10
2018-08-22T00:56:04.098Z,8.27
2018-08-22T00:58:33.396Z,8.07
2018-08-22T01:01:02.468Z,8.10
2018-08-22T01:03:31.527Z,8.33
2018-08-22T01:06:00.607Z,8.90
2018-08-22T01:08:29.667Z,7.93
2018-08-22T01:10:58.755Z,7.57
2018-08-22T01:13:27.903Z,8.07
2018-08-22T01:15:56.965Z,8.13
2018-08-22T01:18:26.041Z,8.10
2018-08-22T01:20:55.141Z,8.50
2018-08-22T01:23:24.243Z,8.57
2018-08-22T01:25:53.326Z,8.60
2018-08-22T01:28:22.385Z,10.00
2018-08-22T01:30:51.538Z,8.20
2018-08-22T01:33:20.621Z,8.37
2018-08-22T01:35:49.885Z,8.30
2018-08-22T01:38:19.237Z,7.83
2018-08-22T01:40:48.427Z,7.87
2018-08-22T01:43:17.527Z,7.37
2018-08-22T01:45:46.631Z,8.00
2018-08-22T01:48:15.724Z,8.20
2018-08-22T01:50:45.087Z,7.13
2018-08-22T01:53:14.197Z,7.70
2018-08-22T01:55:43.387Z,6.93
2018-08-22T01:58:12.695Z,7.33
2018-08-22T02:00:41.806Z,6.87
2018-08-22T02:03:10.902Z,7.97
2018-08-22T02:05:43.065Z,7.57
2018-08-22T02:08:12.153Z,7.73
2018-08-22T02:10:41.253Z,6.70
2018-08-22T02:13:10.369Z,6.67
2018-08-22T02:15:39.413Z,7.60
2018-08-22T02:18:08.546Z,8.60
2018-08-22T02:20:37.621Z,8.03
2018-08-22T02:23:06.952Z,7.20
2018-08-22T02:25:36.014Z,7.60
2018-08-22T02:28:05.162Z,7.67
2018-08-22T02:30:34.228Z,8.30
2018-08-22T02:33:03.344Z,8.40
2018-08-22T02:35:32.407Z,8.13
2018-08-22T02:38:01.679Z,8.53
2018-08-22T02:40:30.816Z,10.23
2018-08-22T02:42:59.883Z,8.47
2018-08-22T02:45:29.012Z,9.80
2018-08-22T02:47:58.091Z,10.87
2018-08-22T02:50:27.305Z,10.37
2018-08-22T02:52:56.403Z,9.27
2018-08-22T02:55:25.474Z,8.57
2018-08-22T02:57:54.569Z,8.80
2018-08-22T03:00:23.719Z,9.57
2018-08-22T03:02:52.862Z,10.63
2018-08-22T03:05:22.228Z,10.80
2018-08-22T03:07:51.399Z,11.53
2018-08-22T03:10:20.591Z,11.57
2018-08-22T03:12:49.715Z,11.17
2018-08-22T03:15:18.891Z,11.13
2018-08-22T03:17:48.093Z,11.33
2018-08-22T03:20:17.287Z,10.97
2018-08-22T03:22:46.381Z,10.53
2018-08-22T03:25:15.505Z,10.80
2018-08-22T03:27:44.686Z,11.03
2018-08-22T03:30:13.772Z,10.43
2018-08-22T03:32:42.864Z,10.13
2018-08-22T03:35:11.956Z,10.33
2018-08-22T03:37:41.022Z,10.97
2018-08-22T03:40:10.160Z,10.27
2018-08-22T03:42:39.343Z,10.13
2018-08-22T03:45:08.430Z,10.10
2018-08-22T03:47:37.504Z,10.00
2018-08-22T03:50:06.869Z,9.13
2018-08-22T03:52:35.922Z,9.43
2018-08-22T03:55:04.986Z,9.00
2018-08-22T03:57:34.078Z,9.47
2018-08-22T04:00:03.229Z,8.30
2018-08-22T04:02:32.296Z,7.50
2018-08-22T04:05:01.406Z,7.67
2018-08-22T04:07:30.662Z,7.40
2018-08-22T04:09:59.758Z,7.53
2018-08-22T04:12:28.894Z,7.60
2018-08-22T04:14:57.996Z,6.37
2018-08-22T04:17:31.499Z,6.10
2018-08-22T04:20:00.578Z,5.83
2018-08-22T04:22:29.646Z,6.07
2018-08-22T04:24:58.638Z,5.63
2018-08-22T04:27:27.780Z,5.30
2018-08-22T04:29:56.912Z,5.23
2018-08-22T04:32:26.044Z,5.07
2018-08-22T04:34:55.190Z,4.43
2018-08-22T04:37:24.335Z,4.50
2018-08-22T04:39:53.561Z,4.40
2018-08-22T04:42:22.677Z,4.37
2018-08-22T04:44:51.999Z,4.53
2018-08-22T04:47:21.062Z,4.87
2018-08-22T04:49:50.128Z,4.40
2018-08-22T04:52:19.267Z,4.30
2018-08-22T04:54:48.326Z,4.30
2018-08-22T04:57:17.430Z,4.70
2018-08-22T04:59:46.538Z,4.70
2018-08-22T05:02:15.639Z,4.97
2018-08-22T05:04:44.702Z,4.40
2018-08-22T05:07:13.827Z,4.10
2018-08-22T05:09:42.907Z,4.27
2018-08-22T05:12:11.895Z,4.33
2018-08-22T05:14:41.014Z,4.40
2018-08-22T05:17:09.996Z,4.20
2018-08-22T05:19:39.123Z,4.30
2018-08-22T05:22:08.210Z,3.83
2018-08-22T05:24:37.334Z,4.03
2018-08-22T05:27:06.629Z,3.60
2018-08-22T05:29:35.786Z,3.87
2018-08-22T05:32:04.923Z,3.47
2018-08-22T05:34:33.988Z,3.17
2018-08-22T05:37:03.071Z,3.60
2018-08-22T05:39:32.180Z,3.27
2018-08-22T05:42:01.263Z,3.53
2018-08-22T05:44:30.392Z,3.83
2018-08-22T05:46:59.459Z,3.70
2018-08-22T05:49:28.562Z,3.53
2018-08-22T05:51:57.551Z,3.17
2018-08-22T05:54:26.630Z,3.00
2018-08-22T05:56:55.707Z,4.07
2018-08-22T05:59:24.851Z,3.80
2018-08-22T06:01:53.907Z,4.43
2018-08-22T06:04:23.025Z,3.80
2018-08-22T06:06:52.020Z,4.13
2018-08-22T06:09:21.136Z,4.57
2018-08-22T06:11:50.231Z,4.90
2018-08-22T06:14:19.303Z,4.93
2018-08-22T06:16:48.371Z,4.77
2018-08-22T06:19:17.448Z,4.27
2018-08-22T06:21:46.583Z,4.37
2018-08-22T06:24:15.703Z,4.23
2018-08-22T06:26:44.787Z,4.33
2018-08-22T06:29:13.871Z,5.33
2018-08-22T06:31:43.011Z,5.27
2018-08-22T06:34:12.203Z,5.00
2018-08-22T06:36:41.367Z,5.30
2018-08-22T06:39:11.481Z,5.23
2018-08-22T06:41:40.872Z,7.37
2018-08-22T06:44:10.045Z,6.60
2018-08-22T06:46:39.300Z,8.17
2018-08-22T06:49:08.400Z,7.40
2018-08-22T06:51:37.707Z,7.60
2018-08-22T06:54:06.950Z,7.93
2018-08-22T06:56:36.051Z,9.77
2018-08-22T06:59:05.238Z,10.70
2018-08-22T07:01:34.356Z,10.37
2018-08-22T07:04:03.440Z,9.10
2018-08-22T07:06:32.540Z,11.27
2018-08-22T07:09:01.686Z,12.90
2018-08-22T07:11:30.785Z,11.13
2018-08-22T07:13:59.943Z,9.80
2018-08-22T07:16:29.176Z,9.27
2018-08-22T07:18:58.292Z,8.17
2018-08-22T07:21:27.387Z,9.23
2018-08-22T07:23:56.468Z,12.93
2018-08-22T07:26:25.728Z,11.10
2018-08-22T07:28:54.962Z,9.83
2018-08-22T07:31:24.028Z,14.70
2018-08-22T07:33:53.242Z,13.47
2018-08-22T07:36:22.350Z,9.23
2018-08-22T07:38:51.461Z,14.47
2018-08-22T07:41:20.535Z,12.80
2018-08-22T07:43:49.636Z,12.40
2018-08-22T07:46:18.722Z,10.60
2018-08-22T07:48:47.821Z,12.53
2018-08-22T07:51:16.947Z,14.47
2018-08-22T07:53:46.030Z,15.47
2018-08-22T07:56:15.092Z,13.80
2018-08-22T07:58:44.433Z,16.57
2018-08-22T08:01:13.515Z,14.07
2018-08-22T08:03:42.603Z,16.87
2018-08-22T08:06:11.699Z,17.03
2018-08-22T08:08:40.830Z,14.43
2018-08-22T08:11:10.057Z,12.83
2018-08-22T08:13:39.188Z,15.47
2018-08-22T08:16:08.311Z,13.97
2018-08-22T08:18:37.405Z,11.73
2018-08-22T08:21:06.492Z,17.13
2018-08-22T08:23:35.562Z,19.50
2018-08-22T08:26:04.743Z,18.17
2018-08-22T08:28:33.992Z,18.03
2018-08-22T08:31:03.172Z,19.97
2018-08-22T08:33:32.341Z,22.83
2018-08-22T08:36:01.487Z,22.77
2018-08-22T08:38:30.779Z,18.00
2018-08-22T08:41:05.302Z,16.63
2018-08-22T08:43:34.960Z,21.23
2018-08-22T08:46:04.443Z,21.03
2018-08-22T08:48:33.843Z,18.60
2018-08-22T08:51:03.018Z,18.87
2018-08-22T08:53:32.415Z,19.00
2018-08-22T08:56:01.834Z,19.33
2018-08-22T08:58:31.067Z,20.03
2018-08-22T09:01:00.236Z,21.93
2018-08-22T09:03:29.305Z,18.83
2018-08-22T09:05:58.525Z,19.33
2018-08-22T09:08:27.600Z,19.00
2018-08-22T09:10:56.716Z,19.20
2018-08-22T09:13:25.809Z,17.37
2018-08-22T09:15:54.879Z,16.57
2018-08-22T09:18:23.971Z,17.37
2018-08-22T09:20:53.596Z,16.90
2018-08-22T09:23:22.711Z,17.13
2018-08-22T09:25:51.807Z,16.77
2018-08-22T09:28:20.975Z,16.20
2018-08-22T09:30:50.097Z,14.57
2018-08-22T09:33:19.273Z,13.77
2018-08-22T09:35:48.398Z,13.20
2018-08-22T09:38:17.693Z,14.20
2018-08-22T09:40:46.872Z,13.13
2018-08-22T09:43:16.117Z,12.50
2018-08-22T09:45:45.466Z,12.47
2018-08-22T09:48:14.519Z,14.13
2018-08-22T09:50:43.681Z,13.27
2018-08-22T09:53:12.923Z,12.70
2018-08-22T09:55:42.063Z,12.77
2018-08-22T09:58:11.156Z,12.40
2018-08-22T10:00:45.878Z,10.83
2018-08-22T10:03:15.144Z,10.80
2018-08-22T10:05:44.215Z,13.17
2018-08-22T10:08:13.288Z,13.17
2018-08-22T10:10:42.367Z,11.73
2018-08-22T10:13:11.626Z,13.03
2018-08-22T10:15:40.980Z,16.43
2018-08-22T10:18:10.190Z,14.47
2018-08-22T10:20:39.271Z,12.30
2018-08-22T10:23:08.402Z,12.67
2018-08-22T10:25:37.566Z,11.30
2018-08-22T10:28:06.654Z,11.47
2018-08-22T10:30:35.859Z,13.97
2018-08-22T10:33:05.043Z,14.23
2018-08-22T10:35:34.262Z,15.30
2018-08-22T10:38:03.468Z,13.87
2018-08-22T10:40:32.568Z,17.50
2018-08-22T10:43:01.665Z,12.33
2018-08-22T10:45:30.756Z,16.50
2018-08-22T10:47:59.998Z,15.27
2018-08-22T10:50:29.377Z,14.40
2018-08-22T10:52:58.455Z,14.43
2018-08-22T10:55:27.568Z,14.50
2018-08-22T10:57:56.804Z,15.77
2018-08-22T11:00:25.890Z,13.33
2018-08-22T11:02:55.033Z,14.67
2018-08-22T11:05:24.137Z,14.53
2018-08-22T11:07:53.234Z,14.50
2018-08-22T11:10:22.303Z,16.87
2018-08-22T11:12:51.390Z,14.73
2018-08-22T11:15:20.523Z,16.90
2018-08-22T11:17:49.826Z,15.57
2018-08-22T11:20:19.004Z,15.00
2018-08-22T11:22:59.620Z,13.17
2018-08-22T11:25:40.309Z,13.43
2018-08-22T11:28:20.764Z,13.50
2018-08-22T11:31:01.187Z,12.27
2018-08-22T11:33:41.780Z,11.90
2018-08-22T11:36:09.812Z,11.13
2018-08-22T11:38:38.903Z,13.67
2018-08-22T11:41:08.137Z,14.23
2018-08-22T11:43:37.805Z,15.30
2018-08-22T11:46:06.901Z,15.20
2018-08-22T11:48:35.988Z,16.77
2018-08-22T11:51:05.605Z,15.97
2018-08-22T11:53:34.659Z,15.40
2018-08-22T11:56:03.848Z,14.90
2018-08-22T11:58:33.068Z,13.73
2018-08-22T12:01:02.170Z,14.63
2018-08-22T12:03:31.384Z,14.43
2018-08-22T12:06:00.549Z,11.57
2018-08-22T12:08:29.672Z,14.07
2018-08-22T12:10:58.952Z,12.97
2018-08-22T12:13:28.059Z,12.10
2018-08-22T12:15:57.173Z,12.50
2018-08-22T12:18:26.286Z,12.17
2018-08-22T12:20:55.473Z,10.80
2018-08-22T12:23:24.574Z,10.57
2018-08-22T12:25:53.864Z,9.97
2018-08-22T12:28:22.975Z,10.43
2018-08-22T12:30:52.081Z,9.53
2018-08-22T12:33:21.251Z,10.23
2018-08-22T12:35:50.374Z,9.27
2018-08-22T12:38:19.442Z,9.77
2018-08-22T12:40:48.529Z,8.97
2018-08-22T12:43:18.371Z,8.80
2018-08-22T12:45:47.415Z,9.27
2018-08-22T12:48:16.569Z,8.27
2018-08-22T12:50:45.639Z,8.17
2018-08-22T12:53:14.724Z,8.47
2018-08-22T12:55:43.832Z,8.00
2018-08-22T12:58:12.944Z,7.53
2018-08-22T13:00:42.032Z,8.60
2018-08-22T13:03:11.162Z,7.97
2018-08-22T13:05:40.301Z,6.97
2018-08-22T13:08:09.409Z,8.67
2018-08-22T13:10:38.502Z,9.30
2018-08-22T13:13:07.724Z,8.83
2018-08-22T13:15:36.875Z,8.80
2018-08-22T13:18:06.099Z,9.70
2018-08-22T13:20:35.161Z,9.13
2018-08-22T13:23:04.323Z,10.30
2018-08-22T13:25:33.487Z,8.60
2018-08-22T13:28:02.742Z,8.77
2018-08-22T13:30:31.890Z,8.13
2018-08-22T13:33:01.100Z,7.40
2018-08-22T13:35:30.188Z,9.23
2018-08-22T13:37:59.483Z,9.83
2018-08-22T13:40:28.596Z,9.27
2018-08-22T13:42:57.675Z,10.20
2018-08-22T13:45:26.794Z,8.50
2018-08-22T13:47:55.891Z,9.37
2018-08-22T13:50:25.067Z,10.30
2018-08-22T13:52:54.133Z,9.17
2018-08-22T13:55:23.199Z,10.30
2018-08-22T13:57:52.338Z,10.13
2018-08-22T14:00:21.461Z,9.90
2018-08-22T14:02:51.619Z,10.23
2018-08-22T14:05:20.702Z,9.93
2018-08-22T14:07:49.860Z,8.97
2018-08-22T14:10:18.915Z,8.13
2018-08-22T14:12:48.091Z,9.23
2018-08-22T14:15:17.276Z,7.83
2018-08-22T14:17:46.307Z,8.23
2018-08-22T14:20:15.418Z,7.33
2018-08-22T14:22:44.495Z,8.13
2018-08-22T14:25:13.652Z,7.10
2018-08-22T14:27:42.842Z,7.30
2018-08-22T14:30:11.934Z,7.17
2018-08-22T14:32:41.205Z,6.17
2018-08-22T14:35:10.421Z,6.97
2018-08-22T14:37:39.545Z,7.90
2018-08-22T14:40:08.689Z,6.90
2018-08-22T14:42:37.932Z,7.23
2018-08-22T14:45:07.487Z,7.30
2018-08-22T14:47:36.791Z,5.53
2018-08-22T14:50:06.799Z,7.93
2018-08-22T14:52:36.216Z,6.67
2018-08-22T14:55:05.371Z,7.83
2018-08-22T14:57:34.612Z,7.20
2018-08-22T15:00:03.736Z,7.13
2018-08-22T15:02:33.018Z,6.33
2018-08-22T15:05:02.115Z,6.37
2018-08-22T15:07:31.395Z,6.70
2018-08-22T15:10:00.446Z,6.63
2018-08-22T15:12:29.519Z,6.63
2018-08-22T15:14:58.645Z,5.90
2018-08-22T15:17:27.823Z,5.80
2018-08-22T15:19:56.904Z,6.57
2018-08-22T15:22:26.169Z,6.50
2018-08-22T15:24:55.307Z,6.07
2018-08-22T15:27:24.417Z,6.03
2018-08-22T15:29:53.748Z,6.00
2018-08-22T15:32:23.365Z,6.27
2018-08-22T15:34:54.336Z,6.77
2018-08-22T15:37:24.140Z,8.17
2018-08-22T15:39:53.271Z,7.87
2018-08-22T15:42:22.332Z,7.10
2018-08-22T15:44:51.454Z,6.30
2018-08-22T15:47:20.731Z,6.70
2018-08-22T15:49:49.983Z,7.23
2018-08-22T15:52:19.058Z,7.80
2018-08-22T15:55:03.859Z,7.23
2018-08-22T15:57:48.301Z,9.60
2018-08-22T16:00:36.595Z,9.57
2018-08-22T16:03:07.004Z,9.87
2018-08-22T16:05:36.954Z,10.70
2018-08-22T16:08:06.323Z,9.23
2018-08-22T16:10:35.391Z,9.03
2018-08-22T16:13:04.451Z,11.93
2018-08-22T16:15:34.940Z,9.43
2018-08-22T16:18:07.407Z,9.17
2018-08-22T16:20:43.533Z,11.20
2018-08-22T16:23:12.613Z,11.97
2018-08-22T16:25:43.938Z,10.60
2018-08-22T16:28:13.070Z,10.70
2018-08-22T16:30:42.405Z,9.67
2018-08-22T16:33:11.823Z,8.87
2018-08-22T16:35:41.000Z,9.60
2018-08-22T16:38:11.249Z,9.80
2018-08-22T16:40:41.984Z,9.33
2018-08-22T16:43:11.144Z,8.87
2018-08-22T16:45:46.091Z,9.93
2018-08-22T16:48:18.183Z,8.83
2018-08-22T16:50:47.438Z,9.17
2018-08-22T16:53:16.531Z,9.33
2018-08-22T16:55:46.219Z,9.50
2018-08-22T16:58:16.054Z,8.60
2018-08-22T17:00:46.803Z,7.57
2018-08-22T17:03:15.887Z,8.40
2018-08-22T17:05:44.971Z,7.17
2018-08-22T17:08:14.142Z,7.03
2018-08-22T17:10:54.620Z,6.87
2018-08-22T17:13:32.726Z,7.00
2018-08-22T17:16:02.348Z,6.63
2018-08-22T17:18:31.540Z,6.37
2018-08-22T17:21:00.652Z,5.63
2018-08-22T17:23:29.850Z,6.33
2018-08-22T17:25:59.131Z,5.87
2018-08-22T17:28:33.704Z,5.77
2018-08-22T17:31:03.588Z,5.20
2018-08-22T17:33:36.723Z,6.03
2018-08-22T17:36:06.773Z,6.00
2018-08-22T17:38:35.984Z,5.13
2018-08-22T17:41:05.196Z,5.53
2018-08-22T17:43:49.824Z,5.93
2018-08-22T17:46:19.054Z,5.63
2018-08-22T17:48:48.241Z,6.87
2018-08-22T17:51:17.442Z,6.03
2018-08-22T17:53:46.634Z,6.23
2018-08-22T17:56:15.752Z,18.47
2018-08-22T17:58:44.880Z,31.87
2018-08-22T18:01:13.948Z,53.80
2018-08-22T18:03:43.089Z,74.20
2018-08-22T18:06:12.220Z,158.33
2018-08-22T18:08:41.499Z,98.10
2018-08-22T18:11:10.727Z,116.90
2018-08-22T18:13:39.806Z,102.03
2018-08-22T18:16:08.919Z,54.97
2018-08-22T18:18:38.005Z,52.67
2018-08-22T18:21:07.083Z,43.37
2018-08-22T18:23:39.040Z,42.63
2018-08-22T18:26:08.143Z,44.50
2018-08-22T18:28:37.236Z,39.43
2018-08-22T18:31:06.507Z,30.10
2018-08-22T18:33:45.880Z,22.57
2018-08-22T18:36:15.115Z,22.77
2018-08-22T18:38:57.459Z,17.57
2018-08-22T18:41:26.563Z,21.70
2018-08-22T18:43:55.639Z,20.30
2018-08-22T18:46:25.927Z,18.30
2018-08-22T18:48:55.010Z,18.40
2018-08-22T18:51:24.393Z,15.70
2018-08-22T18:53:53.466Z,14.97
2018-08-22T18:56:22.906Z,12.93
2018-08-22T18:58:52.000Z,12.90
2018-08-22T19:01:21.103Z,13.23
2018-08-22T19:03:50.296Z,12.53
2018-08-22T19:06:19.400Z,12.47
2018-08-22T19:08:48.489Z,12.00
2018-08-22T19:11:17.586Z,12.10
2018-08-22T19:13:46.654Z,10.90
2018-08-22T19:16:15.725Z,11.37
2018-08-22T19:18:44.779Z,11.47
2018-08-22T19:21:13.870Z,11.53
2018-08-22T19:23:44.788Z,10.07
2018-08-22T19:26:14.414Z,10.03
2018-08-22T19:28:56.773Z,10.63
2018-08-22T19:31:25.871Z,13.73
2018-08-22T19:33:55.016Z,14.10
2018-08-22T19:36:24.094Z,12.43
2018-08-22T19:38:53.196Z,12.90
2018-08-22T19:41:27.468Z,14.93
2018-08-22T19:43:56.632Z,12.60
2018-08-22T19:46:25.810Z,11.83
2018-08-22T19:48:55.085Z,11.60
2018-08-22T19:51:24.428Z,11.47
2018-08-22T19:53:59.060Z,13.90
2018-08-22T19:56:30.435Z,12.60
2018-08-22T19:58:59.753Z,10.47
2018-08-22T20:01:30.326Z,10.47
2018-08-22T20:03:59.452Z,10.87
2018-08-22T20:06:28.728Z,10.97
2018-08-22T20:08:59.050Z,11.10
2018-08-22T20:11:28.506Z,11.33
2018-08-22T20:13:59.450Z,11.33
2018-08-22T20:16:28.579Z,9.70
2018-08-22T20:18:58.964Z,10.20
2018-08-22T20:21:32.019Z,9.73
2018-08-22T20:24:01.899Z,8.87
2018-08-22T20:26:31.477Z,10.93
2018-08-22T20:29:01.607Z,10.37
2018-08-22T20:31:32.276Z,9.20
2018-08-22T20:34:12.295Z,10.30
2018-08-22T20:36:44.143Z,9.50
2018-08-22T20:39:14.154Z,8.30
2018-08-22T20:41:43.868Z,8.60
2018-08-22T20:44:19.925Z,9.33
2018-08-22T20:46:54.390Z,9.80
2018-08-22T20:49:23.496Z,9.17
2018-08-22T20:51:52.672Z,8.30
2018-08-22T20:54:24.159Z,9.00
2018-08-22T20:56:58.590Z,8.50
2018-08-22T20:59:27.770Z,7.60
2018-08-22T21:02:03.807Z,7.53
2018-08-22T21:04:33.623Z,6.73
2018-08-22T21:07:03.081Z,7.20
2018-08-22T21:09:32.256Z,6.40
2018-08-22T21:12:01.330Z,6.20
2018-08-22T21:14:31.086Z,6.47
2018-08-22T21:17:00.292Z,5.70
2018-08-22T21:19:29.416Z,5.37
2018-08-22T21:21:58.684Z,5.13
2018-08-22T21:24:28.028Z,4.60
2018-08-22T21:26:57.188Z,4.50
2018-08-22T21:29:26.319Z,5.17
2018-08-22T21:31:55.428Z,4.60
2018-08-22T21:34:24.518Z,4.73
2018-08-22T21:36:53.583Z,4.57
2018-08-22T21:39:23.644Z,4.50
2018-08-22T21:41:52.970Z,4.37
2018-08-22T21:44:23.111Z,4.20
2018-08-22T21:46:58.498Z,4.37
2018-08-22T21:49:28.266Z,4.30
2018-08-22T21:51:59.766Z,4.30
2018-08-22T21:54:29.111Z,4.40
2018-08-22T21:56:58.174Z,4.00
2018-08-22T21:59:27.692Z,4.10
2018-08-22T22:02:02.019Z,5.17
2018-08-22T22:04:33.803Z,4.00
2018-08-22T22:07:04.035Z,4.20
2018-08-22T22:09:33.522Z,4.37
2018-08-22T22:12:03.285Z,4.00
2018-08-22T22:14:35.453Z,4.80
2018-08-22T22:17:05.206Z,4.37
2018-08-22T22:19:36.035Z,4.30
2018-08-22T22:22:05.364Z,4.83
2018-08-22T22:24:43.695Z,4.57
2018-08-22T22:27:13.183Z,4.93
2018-08-22T22:29:42.244Z,5.27
2018-08-22T22:32:11.295Z,4.77
2018-08-22T22:34:40.536Z,4.97
2018-08-22T22:37:09.619Z,4.57
2018-08-22T22:39:44.884Z,5.40
2018-08-22T22:42:19.408Z,5.00
2018-08-22T22:44:49.778Z,5.53
2018-08-22T22:47:24.271Z,6.33
2018-08-22T22:49:53.420Z,5.70
2018-08-22T22:52:28.989Z,5.77
2018-08-22T22:54:59.244Z,5.07
2018-08-22T22:57:29.482Z,4.70
2018-08-22T22:59:59.214Z,6.13
2018-08-22T23:02:28.691Z,5.97
2018-08-22T23:04:58.549Z,6.77
2018-08-22T23:07:30.188Z,6.33
2018-08-22T23:10:00.504Z,6.20
2018-08-22T23:12:33.788Z,5.63
2018-08-22T23:15:03.056Z,6.10
2018-08-22T23:17:32.111Z,6.87
2018-08-22T23:20:12.955Z,5.97
2018-08-22T23:22:42.085Z,6.60
2018-08-22T23:25:11.544Z,7.13
2018-08-22T23:27:41.127Z,7.37
2018-08-22T23:30:10.756Z,7.23
2018-08-22T23:32:39.884Z,10.30
2018-08-22T23:35:28.201Z,7.97
2018-08-22T23:38:00.163Z,7.53
2018-08-22T23:40:30.355Z,7.20
2018-08-22T23:42:59.492Z,7.43
2018-08-22T23:45:28.782Z,8.53
2018-08-22T23:47:57.827Z,9.20
2018-08-22T23:50:45.286Z,10.23
2018-08-22T23:53:14.417Z,8.93
2018-08-22T23:55:43.525Z,10.30
2018-08-22T23:58:12.742Z,8.90
